»·PEaware :: EJA220 KVNY-KSLC

EJA220 :: KVNY-KSLC

FLIGHT INFORMATION

Flight Status: Arrived
Operator:
Netjets Aviation
More flights by this operator :: More flights under this callsign
Pilot: Ethan S. (29221)
Aircraft: CANADAIR CL-600 CHALLENGER
(CL60)
More flights by this aircraft type
Origin: KVNY Van Nuys
United States
Destination: KSLC Salt Lake City Intl
United States
More flights between these airports :: More routes between these airports
Route: HARYS4 LAS Q70 BLIPP Q842 WINEN MLF DELTA6
File this flight plan on PilotEdge
Remarks:
Altitude:
(Current/Filed)
39,000ft
Speed:
(Current/Filed)
465kts
Departed: 13-Nov-23 04:47 PM
Arrived: 13-Nov-23 06:06 PM
Distance/Time
Traveled:
502nm/1:19
Distance/Time
To Go:
Arrived

Flight Plot

Page will automatically refresh every two minutes.

Flight plan parsing failed; only flown route is shown


Map Options




Map Legend


Flown Route
Filed Route
Departure Airport
Arrival Airport
Navaid (VOR, NDB)
Fix

Horizontal Profiles

Position Reports

Time Latitude Longitude Heading Altitude Ground
Speed
13-Nov-23 16:38 34.202915 -118.491654 181 767ft 0kts
13-Nov-23 16:39 34.203077 -118.491016 18 768ft 5kts
13-Nov-23 16:40 34.205021 -118.491090 356 773ft 10kts
13-Nov-23 16:41 34.207273 -118.491303 356 778ft 11kts
13-Nov-23 16:42 34.211279 -118.491709 358 789ft 15kts
13-Nov-23 16:43 34.215232 -118.492095 351 800ft 13kts
13-Nov-23 16:44 34.217774 -118.492300 355 807ft 5kts
13-Nov-23 16:45 34.218723 -118.491951 77 810ft 7kts
13-Nov-23 16:46 34.196191 -118.488939 176 1545ft 198kts
13-Nov-23 16:47 34.146463 -118.463592 121 3870ft 214kts
13-Nov-23 16:48 34.117168 -118.401415 121 4084ft 211kts
13-Nov-23 16:49 34.130371 -118.351191 346 4965ft 224kts
13-Nov-23 16:50 34.192309 -118.393052 324 7914ft 293kts
13-Nov-23 16:51 34.267213 -118.439257 346 11901ft 331kts
13-Nov-23 16:52 34.364914 -118.434193 34 13354ft 376kts
13-Nov-23 16:53 34.446816 -118.350566 41 15605ft 399kts
13-Nov-23 16:54 34.533828 -118.262511 39 19364ft 422kts
13-Nov-23 16:55 34.626723 -118.169183 38 21120ft 442kts
13-Nov-23 16:56 34.680956 -118.039792 82 24219ft 450kts
13-Nov-23 16:57 34.697867 -117.887920 91 27013ft 460kts
13-Nov-23 16:58 34.706264 -117.730403 91 29209ft 477kts
13-Nov-23 16:59 34.711841 -117.583136 92 30992ft 487kts
13-Nov-23 17:00 34.736027 -117.420469 73 33193ft 494kts
13-Nov-23 17:01 34.779040 -117.262025 75 35008ft 493kts
13-Nov-23 17:02 34.821223 -117.103618 74 36383ft 496kts
13-Nov-23 17:03 34.863509 -116.943546 75 37569ft 499kts
13-Nov-23 17:04 34.906583 -116.782342 68 38488ft 504kts
13-Nov-23 17:05 34.988077 -116.642288 45 38688ft 521kts
13-Nov-23 17:06 35.087513 -116.509739 45 38702ft 533kts
13-Nov-23 17:07 35.187477 -116.376591 44 38719ft 530kts
13-Nov-23 17:08 35.287564 -116.243031 45 38716ft 529kts
13-Nov-23 17:09 35.386891 -116.110147 45 38701ft 531kts
13-Nov-23 17:10 35.486188 -115.976896 45 38708ft 530kts
13-Nov-23 17:11 35.585624 -115.843016 45 38674ft 529kts
13-Nov-23 17:12 35.683696 -115.709370 45 38688ft 526kts
13-Nov-23 17:13 35.781253 -115.574980 46 38688ft 525kts
13-Nov-23 17:14 35.878140 -115.440970 45 38629ft 523kts
13-Nov-23 17:15 35.972884 -115.309456 46 38589ft 521kts
13-Nov-23 17:16 36.069307 -115.176078 43 38602ft 519kts
13-Nov-23 17:17 36.175844 -115.056747 37 38672ft 515kts
13-Nov-23 17:18 36.284359 -114.939737 37 38607ft 517kts
13-Nov-23 17:19 36.392531 -114.822551 37 38619ft 516kts
13-Nov-23 17:20 36.482578 -114.724880 37 38617ft 514kts
13-Nov-23 17:21 36.590207 -114.607461 38 38537ft 515kts
13-Nov-23 17:22 36.698385 -114.490890 34 38540ft 513kts
13-Nov-23 17:23 36.816353 -114.392903 27 38555ft 509kts
13-Nov-23 17:24 36.927651 -114.305257 28 38568ft 509kts
13-Nov-23 17:25 37.047244 -114.210743 28 38568ft 508kts
13-Nov-23 17:26 37.166880 -114.115937 28 38572ft 508kts
13-Nov-23 17:27 37.286378 -114.020899 28 38587ft 509kts
13-Nov-23 17:28 37.406257 -113.925221 28 38551ft 509kts
13-Nov-23 17:29 37.525405 -113.829782 28 38546ft 510kts
13-Nov-23 17:30 37.644824 -113.733791 28 38529ft 510kts
13-Nov-23 17:31 37.764066 -113.637544 28 38555ft 508kts
13-Nov-23 17:32 37.883180 -113.541079 29 38565ft 509kts
13-Nov-23 17:33 37.996265 -113.431593 39 38558ft 515kts
13-Nov-23 17:34 38.100292 -113.312506 39 38579ft 514kts
13-Nov-23 17:35 38.206660 -113.190620 39 38574ft 515kts
13-Nov-23 17:36 38.313107 -113.068373 39 38574ft 516kts
13-Nov-23 17:37 38.431382 -112.971391 17 38524ft 504kts
13-Nov-23 17:38 38.560985 -112.904040 17 38505ft 502kts
13-Nov-23 17:39 38.690648 -112.835718 17 38517ft 505kts
13-Nov-23 17:40 38.820670 -112.766466 17 38448ft 506kts
13-Nov-23 17:41 38.951018 -112.696463 18 38251ft 507kts
13-Nov-23 17:42 39.079301 -112.627210 18 36071ft 494kts
13-Nov-23 17:43 39.204466 -112.559182 18 33863ft 482kts
13-Nov-23 17:44 39.329526 -112.495030 9 31384ft 483kts
13-Nov-23 17:45 39.459942 -112.452895 9 28920ft 476kts
13-Nov-23 17:46 39.585169 -112.411752 9 26526ft 456kts
13-Nov-23 17:47 39.705716 -112.371696 9 24195ft 438kts
13-Nov-23 17:48 39.821290 -112.333030 10 21961ft 420kts
13-Nov-23 17:49 39.932586 -112.295656 11 19739ft 404kts
13-Nov-23 17:50 40.039262 -112.259606 11 17667ft 387kts
13-Nov-23 17:51 40.142501 -112.224703 11 17359ft 387kts
13-Nov-23 17:52 40.246782 -112.189315 11 17354ft 388kts
13-Nov-23 17:53 40.351447 -112.153679 10 17365ft 389kts
13-Nov-23 17:54 40.456441 -112.117856 11 15582ft 383kts
13-Nov-23 17:55 40.555964 -112.084115 11 12326ft 359kts
13-Nov-23 17:56 40.651888 -112.078146 352 11186ft 334kts
13-Nov-23 17:57 40.740639 -112.090473 351 10273ft 315kts
13-Nov-23 17:58 40.826012 -112.100915 352 8758ft 303kts
13-Nov-23 17:59 40.907855 -112.110686 353 7265ft 288kts
13-Nov-23 18:00 40.966150 -112.072218 79 6108ft 249kts
13-Nov-23 18:01 40.955258 -111.991740 136 6080ft 242kts
13-Nov-23 18:02 40.904904 -111.960360 183 6084ft 170kts
13-Nov-23 18:03 40.860026 -111.962028 178 5805ft 161kts
13-Nov-23 18:04 40.820495 -111.962029 180 4670ft 135kts
13-Nov-23 18:05 40.788684 -111.962093 179 4225ft 29kts
13-Nov-23 18:06 40.785954 -111.960510 129 4226ft 0kts
13-Nov-23 18:07 40.784661 -111.960034 180 4227ft 10kts
13-Nov-23 18:08 40.780736 -111.960032 180 4228ft 20kts
13-Nov-23 18:09 40.776543 -111.960574 142 4229ft 8kts
13-Nov-23 18:10 40.777162 -111.959462 269 4229ft 8kts
13-Nov-23 18:11 40.776730 -111.959686 179 4229ft 0kts
13-Nov-23 18:12 40.776730 -111.959686 179 4229ft 0kts
13-Nov-23 18:13 40.776730 -111.959686 179 4229ft 0kts
13-Nov-23 18:14 40.776730 -111.959686 179 4229ft 0kts
13-Nov-23 18:15 40.776730 -111.959686 179 4229ft 0kts
13-Nov-23 18:16 40.776730 -111.959686 179 4229ft 0kts

Navigation Log

Ident Type
Flight plan parsing failed, navigation log unavailable